Time;durP1;ratioP1;P1;durP2;ratioP2;P2;SDS_P1;SDS_P2;PMS_P1;PMS_P2;Temp;Humidity;BMP_temperature;BMP_pressure;BME280_temperature;BME280_humidity;BME280_pressure;Samples;Min_cycle;Max_cycle;Signal;HPM_P1;HPM_P2
2022/10/18 00:00:43;;;;;;;;;;;20.40;64.30;;;;;;5016138;28;20120;-75
2022/10/18 00:03:09;;;;;;;;;;;20.40;64.50;;;;;;5015683;28;19920;-74
2022/10/18 00:05:34;;;;;;;;;;;20.40;64.50;;;;;;5014563;28;19917;-74
2022/10/18 00:08:00;;;;;;;;;;;20.40;64.30;;;;;;5018069;28;20379;-74
2022/10/18 00:10:25;;;;;;;;;;;20.40;64.40;;;;;;5033964;28;19909;-75
2022/10/18 00:12:51;;;;;;;;;;;20.40;64.40;;;;;;5034243;28;19971;-74
2022/10/18 00:15:16;;;;;;;;;;;20.40;64.20;;;;;;5034338;28;19912;-74
2022/10/18 00:17:41;;;;;;;;;;;20.50;64.30;;;;;;5035031;28;19959;-74
2022/10/18 00:20:07;;;;;;;;;;;20.50;64.20;;;;;;5017725;28;20385;-74
2022/10/18 00:22:36;;;;;;;;;;;20.50;64.40;;;;;;5035405;28;20254;-74
2022/10/18 00:25:02;;;;;;;;;;;20.50;64.30;;;;;;5030981;28;19964;-74
2022/10/18 00:27:28;;;;;;;;;;;20.50;64.30;;;;;;5015852;28;19956;-74
2022/10/18 00:29:53;;;;;;;;;;;20.40;64.30;;;;;;5015536;28;19916;-74
2022/10/18 00:32:19;;;;;;;;;;;20.40;64.20;;;;;;5015196;28;19913;-74
2022/10/18 00:34:44;;;;;;;;;;;20.40;64.30;;;;;;5014166;28;19910;-74
2022/10/18 00:37:09;;;;;;;;;;;20.40;64.30;;;;;;5015412;28;20376;-74
2022/10/18 00:39:35;;;;;;;;;;;20.40;64.30;;;;;;5013152;28;19909;-74
2022/10/18 00:42:02;;;;;;;;;;;20.40;64.20;;;;;;5033626;28;20188;-74
2022/10/18 00:44:27;;;;;;;;;;;20.40;64.30;;;;;;5033828;28;20305;-74
2022/10/18 00:46:54;;;;;;;;;;;20.40;64.30;;;;;;5034512;28;19914;-74
2022/10/18 00:49:26;;;;;;;;;;;20.40;64.20;;;;;;5017194;28;19909;-74
2022/10/18 00:51:58;;;;;;;;;;;20.40;64.10;;;;;;5033599;28;19917;-74
2022/10/18 00:54:24;;;;;;;;;;;20.40;64.20;;;;;;5016659;28;19917;-74
2022/10/18 00:56:49;;;;;;;;;;;20.40;64.20;;;;;;5016796;28;19910;-74
2022/10/18 00:59:15;;;;;;;;;;;20.40;64.40;;;;;;5034719;28;19913;-74
2022/10/18 01:01:41;;;;;;;;;;;20.40;64.40;;;;;;5034226;28;19916;-74
2022/10/18 01:04:06;;;;;;;;;;;20.40;64.40;;;;;;5034850;28;19916;-74
2022/10/18 01:06:32;;;;;;;;;;;20.40;64.40;;;;;;5033183;28;19921;-74
2022/10/18 01:09:09;;;;;;;;;;;20.40;64.30;;;;;;5033365;28;19918;-74
2022/10/18 01:11:34;;;;;;;;;;;20.40;64.40;;;;;;5033120;28;19971;-74
2022/10/18 01:14:17;;;;;;;;;;;20.40;64.40;;;;;;5034201;28;19909;-74
2022/10/18 01:16:52;;;;;;;;;;;20.40;64.40;;;;;;5013086;28;20100;-74
2022/10/18 01:19:20;;;;;;;;;;;20.40;64.40;;;;;;5013442;28;19909;-74
2022/10/18 01:21:59;;;;;;;;;;;20.40;64.30;;;;;;5014569;28;19909;-74
2022/10/18 01:24:44;;;;;;;;;;;20.40;64.20;;;;;;4996574;28;20271;-74
2022/10/18 01:27:09;;;;;;;;;;;20.40;64.70;;;;;;5014405;28;19920;-74
2022/10/18 01:29:37;;;;;;;;;;;20.40;64.50;;;;;;5014428;28;19992;-74
2022/10/18 01:32:03;;;;;;;;;;;20.40;64.50;;;;;;5013871;28;19919;-74
2022/10/18 01:34:30;;;;;;;;;;;20.40;64.40;;;;;;5013123;28;19910;-74
2022/10/18 01:36:56;;;;;;;;;;;20.30;64.20;;;;;;5013135;28;20372;-74
2022/10/18 01:39:30;;;;;;;;;;;20.30;64.30;;;;;;5027382;28;19996;-74
2022/10/18 01:41:55;;;;;;;;;;;20.30;64.30;;;;;;5032875;28;19910;-74
2022/10/18 01:44:22;;;;;;;;;;;20.30;64.30;;;;;;5032564;28;19978;-74
2022/10/18 01:46:47;;;;;;;;;;;20.30;64.30;;;;;;5032196;28;20350;-74
2022/10/18 01:49:13;;;;;;;;;;;20.30;64.30;;;;;;5033763;28;19909;-74
2022/10/18 01:51:38;;;;;;;;;;;20.30;64.20;;;;;;5033339;28;20392;-74
2022/10/18 01:54:04;;;;;;;;;;;20.30;64.10;;;;;;5015018;28;19909;-74
2022/10/18 01:56:41;;;;;;;;;;;20.40;64.00;;;;;;5013370;28;19913;-73
2022/10/18 01:59:25;;;;;;;;;;;20.40;63.90;;;;;;5014324;28;20052;-73
2022/10/18 02:02:06;;;;;;;;;;;20.40;63.70;;;;;;5013386;28;19913;-74
2022/10/18 02:04:50;;;;;;;;;;;20.40;63.70;;;;;;5014212;28;19949;-73
2022/10/18 02:07:21;;;;;;;;;;;20.50;63.80;;;;;;5033623;28;20296;-74
2022/10/18 02:10:07;;;;;;;;;;;20.40;63.60;;;;;;5033284;28;19909;-75
2022/10/18 02:12:33;;;;;;;;;;;20.40;63.60;;;;;;5034542;28;22089;-74
2022/10/18 02:14:58;;;;;;;;;;;20.40;63.60;;;;;;5035381;28;20004;-74
2022/10/18 02:17:24;;;;;;;;;;;20.40;63.70;;;;;;5052808;28;19952;-74
2022/10/18 02:19:51;;;;;;;;;;;20.40;63.80;;;;;;5035361;28;19909;-74
2022/10/18 02:22:16;;;;;;;;;;;20.40;63.80;;;;;;5035507;28;19916;-74
2022/10/18 02:24:43;;;;;;;;;;;20.40;63.90;;;;;;5034903;28;19913;-74
2022/10/18 02:27:08;;;;;;;;;;;20.40;63.90;;;;;;5035233;28;20269;-74
2022/10/18 02:29:34;;;;;;;;;;;20.40;64.00;;;;;;5035226;28;19909;-74
2022/10/18 02:32:03;;;;;;;;;;;20.40;63.90;;;;;;5052550;28;20066;-74
2022/10/18 02:34:30;;;;;;;;;;;20.40;64.00;;;;;;5018548;28;20292;-73
2022/10/18 02:36:56;;;;;;;;;;;20.40;64.00;;;;;;5052979;28;20284;-74
2022/10/18 02:39:24;;;;;;;;;;;20.40;64.10;;;;;;5052537;28;19913;-74
2022/10/18 02:41:49;;;;;;;;;;;20.30;64.00;;;;;;5031763;28;20380;-74
2022/10/18 02:44:14;;;;;;;;;;;20.30;63.90;;;;;;5015314;28;19909;-74
2022/10/18 02:46:40;;;;;;;;;;;20.30;63.90;;;;;;5032492;28;19915;-74
2022/10/18 02:49:05;;;;;;;;;;;20.30;64.00;;;;;;5015385;28;20297;-74
2022/10/18 02:51:31;;;;;;;;;;;20.30;63.90;;;;;;5032752;28;19917;-74
2022/10/18 02:53:56;;;;;;;;;;;20.30;63.90;;;;;;5015415;28;19909;-74
2022/10/18 02:56:22;;;;;;;;;;;20.40;63.90;;;;;;5014633;28;19909;-74
2022/10/18 02:58:47;;;;;;;;;;;20.40;63.90;;;;;;5032888;28;19909;-74
2022/10/18 03:01:13;;;;;;;;;;;20.40;63.80;;;;;;5014695;28;19909;-74
2022/10/18 03:03:38;;;;;;;;;;;20.40;63.70;;;;;;5016381;28;20007;-73
2022/10/18 03:06:03;;;;;;;;;;;20.40;63.70;;;;;;5015783;28;19976;-74
2022/10/18 03:08:29;;;;;;;;;;;20.40;63.60;;;;;;5023278;28;19913;-74
2022/10/18 03:10:55;;;;;;;;;;;20.40;63.60;;;;;;5036382;28;19948;-74
2022/10/18 03:13:20;;;;;;;;;;;20.40;63.60;;;;;;5036710;28;19916;-74
2022/10/18 03:15:46;;;;;;;;;;;20.40;63.70;;;;;;5020673;28;19916;-74
2022/10/18 03:18:12;;;;;;;;;;;20.40;63.70;;;;;;4998868;28;19913;-74
2022/10/18 03:20:37;;;;;;;;;;;20.40;63.60;;;;;;5015542;28;19916;-73
2022/10/18 03:23:03;;;;;;;;;;;20.40;63.80;;;;;;5015485;28;19909;-74
2022/10/18 03:25:28;;;;;;;;;;;20.40;63.70;;;;;;5016413;28;19909;-73
2022/10/18 03:27:54;;;;;;;;;;;20.40;63.70;;;;;;4999044;28;19909;-74
2022/10/18 03:30:19;;;;;;;;;;;20.40;63.70;;;;;;5016635;28;20270;-75
2022/10/18 03:32:44;;;;;;;;;;;20.40;63.80;;;;;;5016029;28;20301;-75
2022/10/18 03:35:10;;;;;;;;;;;20.40;63.70;;;;;;5016528;28;19910;-75
2022/10/18 03:37:35;;;;;;;;;;;20.40;63.70;;;;;;4999033;28;19916;-73
2022/10/18 03:40:01;;;;;;;;;;;20.40;63.60;;;;;;5034707;28;20454;-74
2022/10/18 03:42:27;;;;;;;;;;;20.40;63.60;;;;;;5035014;28;20325;-74
2022/10/18 03:44:52;;;;;;;;;;;20.40;63.40;;;;;;5034888;28;20262;-74
2022/10/18 03:47:18;;;;;;;;;;;20.40;63.50;;;;;;5035703;28;19978;-74
2022/10/18 03:49:43;;;;;;;;;;;20.40;63.50;;;;;;5034610;28;19909;-73
2022/10/18 03:52:08;;;;;;;;;;;20.40;63.40;;;;;;5034667;28;19917;-74
2022/10/18 03:54:34;;;;;;;;;;;20.40;63.40;;;;;;5035595;28;19909;-74
2022/10/18 03:56:59;;;;;;;;;;;20.40;63.30;;;;;;5035940;28;20096;-74
2022/10/18 03:59:25;;;;;;;;;;;20.50;63.30;;;;;;5018059;28;19909;-74
2022/10/18 04:01:50;;;;;;;;;;;20.50;63.30;;;;;;5034214;28;19999;-74
2022/10/18 04:04:16;;;;;;;;;;;20.40;63.40;;;;;;5027322;28;19917;-74
2022/10/18 04:06:42;;;;;;;;;;;20.40;63.30;;;;;;5014753;28;19975;-75
2022/10/18 04:09:07;;;;;;;;;;;20.40;63.40;;;;;;5027339;28;19909;-74
2022/10/18 04:11:32;;;;;;;;;;;20.40;63.50;;;;;;5035528;28;19917;-74
2022/10/18 04:13:58;;;;;;;;;;;20.30;63.50;;;;;;5034531;28;19954;-74
2022/10/18 04:16:23;;;;;;;;;;;20.30;63.50;;;;;;5033723;28;20008;-74
2022/10/18 04:18:49;;;;;;;;;;;20.30;63.50;;;;;;5035514;28;19941;-74
2022/10/18 04:21:14;;;;;;;;;;;20.30;63.50;;;;;;5034151;28;19909;-75
2022/10/18 04:23:40;;;;;;;;;;;20.30;63.40;;;;;;5034311;28;19913;-75
2022/10/18 04:26:05;;;;;;;;;;;20.30;63.40;;;;;;5035007;28;20337;-74
2022/10/18 04:28:31;;;;;;;;;;;20.30;63.40;;;;;;5033862;28;20231;-74
2022/10/18 04:30:57;;;;;;;;;;;20.30;63.40;;;;;;5035066;28;20388;-74
2022/10/18 04:33:22;;;;;;;;;;;20.30;63.40;;;;;;5033414;28;19913;-74
2022/10/18 04:35:49;;;;;;;;;;;20.30;63.30;;;;;;5033727;28;19917;-74
2022/10/18 04:38:14;;;;;;;;;;;20.30;63.40;;;;;;5034997;28;19910;-74
2022/10/18 04:40:40;;;;;;;;;;;20.30;63.30;;;;;;5034689;28;20361;-74
2022/10/18 04:43:05;;;;;;;;;;;20.30;63.30;;;;;;5016473;28;20304;-74
2022/10/18 04:45:31;;;;;;;;;;;20.30;63.40;;;;;;5013863;28;19909;-75
2022/10/18 04:47:56;;;;;;;;;;;20.30;63.40;;;;;;5014702;28;19909;-74
2022/10/18 04:50:22;;;;;;;;;;;20.30;63.40;;;;;;4997451;28;19913;-74
2022/10/18 04:52:47;;;;;;;;;;;20.30;63.50;;;;;;5014959;28;19913;-74
2022/10/18 04:55:12;;;;;;;;;;;20.30;63.40;;;;;;5014697;28;19910;-74
2022/10/18 04:57:38;;;;;;;;;;;20.30;63.40;;;;;;5013812;28;19959;-74
2022/10/18 05:00:04;;;;;;;;;;;20.30;63.50;;;;;;5015044;28;19918;-74
2022/10/18 05:02:29;;;;;;;;;;;20.30;63.40;;;;;;5014452;28;19915;-74
2022/10/18 05:04:54;;;;;;;;;;;20.30;63.40;;;;;;5013410;28;20345;-74
2022/10/18 05:07:20;;;;;;;;;;;20.30;63.40;;;;;;5013557;28;19971;-73
2022/10/18 05:09:45;;;;;;;;;;;20.30;63.30;;;;;;5032163;28;19917;-73
2022/10/18 05:12:11;;;;;;;;;;;20.30;63.20;;;;;;5034505;28;19917;-73
2022/10/18 05:14:36;;;;;;;;;;;20.30;63.10;;;;;;5029128;28;19909;-74
2022/10/18 05:17:02;;;;;;;;;;;20.30;63.10;;;;;;5014382;28;19944;-74
2022/10/18 05:19:27;;;;;;;;;;;20.30;63.20;;;;;;5014840;28;19920;-74
2022/10/18 05:21:52;;;;;;;;;;;20.30;63.30;;;;;;5014501;28;20385;-74
2022/10/18 05:24:18;;;;;;;;;;;20.30;63.40;;;;;;5012808;28;19997;-74
2022/10/18 05:26:43;;;;;;;;;;;20.30;63.30;;;;;;5013738;28;19952;-74
2022/10/18 05:29:09;;;;;;;;;;;20.30;63.30;;;;;;5013201;28;19914;-74
2022/10/18 05:31:34;;;;;;;;;;;20.30;63.30;;;;;;5013786;28;20361;-74
2022/10/18 05:34:00;;;;;;;;;;;20.30;63.30;;;;;;5014255;28;19910;-74
2022/10/18 05:36:26;;;;;;;;;;;20.30;64.20;;;;;;5012927;28;20297;-74
2022/10/18 05:38:52;;;;;;;;;;;20.30;63.40;;;;;;5023451;28;19917;-74
2022/10/18 05:41:17;;;;;;;;;;;20.30;63.40;;;;;;5032409;28;19916;-74
2022/10/18 05:43:43;;;;;;;;;;;20.30;63.40;;;;;;5033908;28;20292;-74
2022/10/18 05:46:08;;;;;;;;;;;20.30;63.30;;;;;;5033750;28;19910;-74
2022/10/18 05:48:34;;;;;;;;;;;20.30;63.30;;;;;;5032425;28;19955;-73
2022/10/18 05:50:59;;;;;;;;;;;20.30;63.30;;;;;;5033612;28;19909;-73
2022/10/18 05:53:25;;;;;;;;;;;20.30;63.30;;;;;;5016026;28;19909;-74
2022/10/18 05:55:50;;;;;;;;;;;20.30;63.20;;;;;;5033421;28;19939;-74
2022/10/18 05:58:16;;;;;;;;;;;20.30;63.10;;;;;;5033609;28;19966;-73
2022/10/18 06:00:41;;;;;;;;;;;20.40;63.10;;;;;;5032331;28;20383;-74
2022/10/18 06:03:07;;;;;;;;;;;20.40;63.00;;;;;;5033094;28;20341;-74
2022/10/18 06:05:32;;;;;;;;;;;20.40;63.00;;;;;;5023893;28;19943;-74
2022/10/18 06:07:58;;;;;;;;;;;20.30;62.90;;;;;;5036560;28;19916;-74
2022/10/18 06:10:23;;;;;;;;;;;20.30;63.00;;;;;;5053013;28;19916;-74
2022/10/18 06:12:49;;;;;;;;;;;20.30;63.10;;;;;;5035240;28;19917;-74
2022/10/18 06:15:14;;;;;;;;;;;20.30;63.10;;;;;;5035287;28;20336;-74
2022/10/18 06:17:39;;;;;;;;;;;20.30;63.10;;;;;;5052749;28;19909;-74
2022/10/18 06:20:06;;;;;;;;;;;20.30;63.20;;;;;;5035204;28;19915;-75
2022/10/18 06:22:31;;;;;;;;;;;20.20;63.10;;;;;;5053133;28;19909;-75
2022/10/18 06:24:57;;;;;;;;;;;20.20;63.20;;;;;;5034815;28;20012;-75
2022/10/18 06:27:22;;;;;;;;;;;20.20;63.20;;;;;;5035223;28;20315;-74
2022/10/18 06:29:48;;;;;;;;;;;20.20;63.20;;;;;;5034893;28;19945;-73
2022/10/18 06:32:13;;;;;;;;;;;20.20;63.30;;;;;;5052617;28;19958;-75
2022/10/18 06:34:39;;;;;;;;;;;20.20;63.30;;;;;;5035128;28;19916;-75
2022/10/18 06:37:04;;;;;;;;;;;20.20;63.20;;;;;;5052653;28;20280;-74
2022/10/18 06:39:30;;;;;;;;;;;20.20;63.30;;;;;;5051727;28;19916;-74
2022/10/18 06:41:55;;;;;;;;;;;20.20;63.50;;;;;;5044972;28;20373;-73
2022/10/18 06:44:20;;;;;;;;;;;20.20;63.30;;;;;;5032881;28;20357;-74
2022/10/18 06:46:46;;;;;;;;;;;20.20;63.30;;;;;;5032680;28;19955;-73
2022/10/18 06:49:13;;;;;;;;;;;20.20;63.30;;;;;;4998565;28;20416;-74
2022/10/18 06:51:38;;;;;;;;;;;20.20;63.00;;;;;;5015230;28;19952;-74
2022/10/18 06:54:04;;;;;;;;;;;20.20;63.10;;;;;;5032927;28;19910;-74
2022/10/18 06:56:29;;;;;;;;;;;20.20;63.10;;;;;;5032306;28;19909;-74
2022/10/18 06:58:54;;;;;;;;;;;20.20;63.10;;;;;;5032232;28;19909;-74
2022/10/18 07:01:20;;;;;;;;;;;20.20;63.00;;;;;;5014654;28;19970;-74
2022/10/18 07:03:46;;;;;;;;;;;20.20;63.00;;;;;;5015089;28;19963;-75
2022/10/18 07:06:12;;;;;;;;;;;20.20;63.00;;;;;;5032267;28;19921;-74
2022/10/18 07:08:37;;;;;;;;;;;20.20;63.00;;;;;;5041091;28;20394;-74
2022/10/18 07:11:03;;;;;;;;;;;20.20;63.00;;;;;;5034215;28;19913;-74
2022/10/18 07:13:29;;;;;;;;;;;20.30;63.00;;;;;;5052492;28;20269;-74
2022/10/18 07:16:01;;;;;;;;;;;20.30;62.90;;;;;;5052510;28;19913;-74
2022/10/18 07:18:26;;;;;;;;;;;20.30;63.00;;;;;;5052317;28;19909;-74
2022/10/18 07:20:51;;;;;;;;;;;20.30;63.00;;;;;;5052481;28;19919;-74
2022/10/18 07:23:19;;;;;;;;;;;20.20;63.00;;;;;;5034585;28;19962;-74
2022/10/18 07:25:45;;;;;;;;;;;20.20;63.10;;;;;;5051986;28;19909;-74
2022/10/18 07:28:11;;;;;;;;;;;20.20;63.00;;;;;;5052343;28;19916;-74
2022/10/18 07:30:36;;;;;;;;;;;20.20;63.10;;;;;;5052409;28;19909;-74
2022/10/18 07:33:02;;;;;;;;;;;20.10;63.10;;;;;;5033311;28;19917;-74
2022/10/18 07:35:27;;;;;;;;;;;20.20;63.20;;;;;;5014590;28;19909;-74
2022/10/18 07:37:53;;;;;;;;;;;20.20;63.10;;;;;;5016948;28;20411;-74
2022/10/18 07:40:18;;;;;;;;;;;20.20;63.10;;;;;;5034004;28;20309;-74
2022/10/18 07:42:43;;;;;;;;;;;20.20;63.10;;;;;;5052212;28;20254;-75
2022/10/18 07:45:11;;;;;;;;;;;20.20;63.10;;;;;;5034277;28;19912;-74
2022/10/18 07:47:36;;;;;;;;;;;20.20;63.10;;;;;;5051749;28;19908;-74
2022/10/18 07:50:02;;;;;;;;;;;20.20;63.10;;;;;;5053810;28;19919;-75
2022/10/18 07:52:27;;;;;;;;;;;20.20;63.10;;;;;;5055766;28;20011;-74
2022/10/18 07:54:53;;;;;;;;;;;20.20;63.00;;;;;;5055465;28;19923;-75
2022/10/18 07:57:18;;;;;;;;;;;20.20;63.00;;;;;;5037766;28;20026;-74
2022/10/18 07:59:46;;;;;;;;;;;20.20;63.00;;;;;;5056032;28;19908;-74
2022/10/18 08:02:12;;;;;;;;;;;20.20;63.00;;;;;;5055312;28;20424;-74
2022/10/18 08:04:37;;;;;;;;;;;20.20;63.00;;;;;;5044442;28;19909;-74
2022/10/18 08:07:03;;;;;;;;;;;20.20;62.90;;;;;;5017999;28;20313;-75
2022/10/18 08:09:28;;;;;;;;;;;20.20;62.90;;;;;;5050936;28;19917;-75
2022/10/18 08:11:54;;;;;;;;;;;20.20;63.00;;;;;;5055311;28;19925;-74
2022/10/18 08:14:19;;;;;;;;;;;20.20;63.00;;;;;;5021087;28;20361;-74
2022/10/18 08:16:44;;;;;;;;;;;20.20;63.00;;;;;;5054991;28;19932;-74
2022/10/18 08:19:10;;;;;;;;;;;20.20;63.00;;;;;;5037587;28;20289;-75
2022/10/18 08:21:35;;;;;;;;;;;20.20;63.80;;;;;;5055433;28;19908;-74
2022/10/18 08:24:01;;;;;;;;;;;20.20;62.90;;;;;;5037486;28;19908;-74
2022/10/18 08:26:26;;;;;;;;;;;20.20;62.90;;;;;;5054784;28;19909;-74
2022/10/18 08:28:52;;;;;;;;;;;20.20;62.90;;;;;;5055271;28;19920;-74
2022/10/18 08:31:17;;;;;;;;;;;20.20;62.80;;;;;;5054645;28;19915;-74
2022/10/18 08:33:43;;;;;;;;;;;20.20;62.90;;;;;;5037355;28;20392;-74
2022/10/18 08:36:09;;;;;;;;;;;20.20;62.90;;;;;;5037118;28;19963;-74
2022/10/18 08:38:35;;;;;;;;;;;20.20;62.90;;;;;;5037586;28;19908;-75
2022/10/18 08:41:01;;;;;;;;;;;20.20;62.80;;;;;;5036557;28;20429;-75
2022/10/18 08:43:31;;;;;;;;;;;20.30;63.00;;;;;;5017436;28;19909;-75
2022/10/18 08:45:57;;;;;;;;;;;20.20;62.90;;;;;;5017292;28;19916;-75
2022/10/18 08:48:25;;;;;;;;;;;20.20;62.90;;;;;;5016927;28;19913;-74
2022/10/18 08:50:51;;;;;;;;;;;20.20;62.90;;;;;;5017137;28;19985;-74
2022/10/18 08:53:18;;;;;;;;;;;20.20;62.90;;;;;;5017097;28;20016;-74
2022/10/18 08:55:46;;;;;;;;;;;20.20;62.90;;;;;;5016604;28;19916;-75
2022/10/18 08:58:19;;;;;;;;;;;20.20;62.90;;;;;;5034872;28;20007;-75
2022/10/18 09:00:48;;;;;;;;;;;20.20;63.00;;;;;;5016243;28;19944;-74
2022/10/18 09:03:17;;;;;;;;;;;20.20;63.00;;;;;;5016487;28;19909;-74
2022/10/18 09:05:50;;;;;;;;;;;20.20;63.00;;;;;;5034434;28;19928;-74
2022/10/18 09:08:28;;;;;;;;;;;20.20;63.00;;;;;;5022285;28;19909;-73
2022/10/18 09:10:54;;;;;;;;;;;20.20;63.00;;;;;;5036171;28;19916;-74
2022/10/18 09:13:27;;;;;;;;;;;20.20;63.00;;;;;;5054339;28;20292;-74
2022/10/18 09:15:52;;;;;;;;;;;20.10;63.00;;;;;;5036767;28;19928;-74
2022/10/18 09:18:36;;;;;;;;;;;20.10;63.00;;;;;;5053902;28;20357;-74
2022/10/18 09:21:13;;;;;;;;;;;20.10;63.00;;;;;;5054218;28;19909;-74
2022/10/18 09:23:44;;;;;;;;;;;20.20;63.00;;;;;;5019796;28;19946;-74
2022/10/18 09:26:13;;;;;;;;;;;20.30;62.90;;;;;;5035789;28;20323;-74
2022/10/18 09:28:57;;;;;;;;;;;20.30;62.90;;;;;;5036271;28;19909;-74
2022/10/18 09:31:30;;;;;;;;;;;20.30;62.70;;;;;;5044401;28;19916;-74
2022/10/18 09:33:57;;;;;;;;;;;20.40;62.50;;;;;;5016365;28;19916;-74
2022/10/18 09:36:23;;;;;;;;;;;20.40;62.30;;;;;;5016118;28;19920;-74
2022/10/18 09:38:52;;;;;;;;;;;20.50;62.20;;;;;;5026394;28;19915;-75
2022/10/18 09:41:21;;;;;;;;;;;20.50;62.20;;;;;;5018969;28;19909;-75
2022/10/18 09:44:02;;;;;;;;;;;20.50;62.10;;;;;;5053943;28;19909;-75
2022/10/18 09:46:51;;;;;;;;;;;20.50;62.10;;;;;;5018846;28;19909;-75
2022/10/18 09:49:21;;;;;;;;;;;20.50;62.00;;;;;;5024982;28;19913;-75
2022/10/18 09:51:46;;;;;;;;;;;20.50;62.10;;;;;;5035664;28;20055;-75
2022/10/18 09:54:18;;;;;;;;;;;20.50;62.10;;;;;;5035665;28;19948;-75
2022/10/18 09:56:45;;;;;;;;;;;20.50;62.30;;;;;;5053502;28;19908;-75
2022/10/18 09:59:31;;;;;;;;;;;20.50;62.40;;;;;;5035698;28;19998;-75
2022/10/18 10:01:56;;;;;;;;;;;20.40;62.40;;;;;;5042177;28;20372;-75
2022/10/18 10:04:22;;;;;;;;;;;20.40;62.70;;;;;;5044576;28;19921;-75
2022/10/18 10:06:51;;;;;;;;;;;20.30;63.00;;;;;;5015519;28;20377;-75
2022/10/18 10:09:16;;;;;;;;;;;20.30;63.20;;;;;;5018380;28;20056;-75
2022/10/18 10:11:44;;;;;;;;;;;20.30;63.40;;;;;;5035430;28;19921;-75
2022/10/18 10:14:16;;;;;;;;;;;20.20;63.90;;;;;;5018912;28;19952;-75
2022/10/18 10:16:43;;;;;;;;;;;20.30;63.30;;;;;;5035065;28;19918;-74
2022/10/18 10:19:19;;;;;;;;;;;20.20;63.40;;;;;;5035434;28;20345;-74
2022/10/18 10:21:45;;;;;;;;;;;20.20;63.50;;;;;;5053066;28;20288;-75
2022/10/18 10:24:21;;;;;;;;;;;20.10;63.50;;;;;;5035113;28;19913;-75
2022/10/18 10:26:47;;;;;;;;;;;20.20;63.40;;;;;;5035123;28;19957;-75
2022/10/18 10:29:39;;;;;;;;;;;20.20;63.50;;;;;;5035064;28;20369;-75
2022/10/18 10:32:04;;;;;;;;;;;20.20;63.60;;;;;;5029083;28;20349;-75
2022/10/18 10:34:30;;;;;;;;;;;20.20;63.70;;;;;;5035344;28;20008;-75
2022/10/18 10:36:56;;;;;;;;;;;20.20;63.70;;;;;;5052963;28;19909;-75
2022/10/18 10:39:22;;;;;;;;;;;20.20;63.80;;;;;;5034891;28;19909;-75
2022/10/18 10:41:48;;;;;;;;;;;20.30;63.90;;;;;;5031612;28;20361;-75
2022/10/18 10:44:20;;;;;;;;;;;20.20;63.70;;;;;;5015278;28;19909;-75
2022/10/18 10:46:47;;;;;;;;;;;20.20;63.80;;;;;;4998270;28;19909;-75
2022/10/18 10:49:22;;;;;;;;;;;20.30;63.80;;;;;;5017332;28;20372;-75
2022/10/18 10:51:57;;;;;;;;;;;20.20;63.60;;;;;;5015788;28;19913;-74
2022/10/18 10:54:23;;;;;;;;;;;20.30;63.70;;;;;;4998390;28;19920;-74
2022/10/18 10:57:10;;;;;;;;;;;20.20;63.50;;;;;;5032786;28;19909;-75
2022/10/18 10:59:47;;;;;;;;;;;20.20;63.60;;;;;;5032719;28;20080;-75
2022/10/18 11:02:13;;;;;;;;;;;20.20;63.80;;;;;;5031156;28;19920;-75
2022/10/18 11:04:39;;;;;;;;;;;20.20;63.70;;;;;;5032413;28;19913;-75
2022/10/18 11:07:05;;;;;;;;;;;20.30;63.80;;;;;;5015271;28;19932;-75
2022/10/18 11:09:32;;;;;;;;;;;20.20;63.70;;;;;;5046989;28;20314;-75
2022/10/18 11:12:02;;;;;;;;;;;20.30;63.80;;;;;;5034541;28;19913;-75
2022/10/18 11:14:35;;;;;;;;;;;20.30;63.70;;;;;;5034679;28;19920;-75
2022/10/18 11:17:11;;;;;;;;;;;20.30;63.70;;;;;;5034340;28;20007;-75
2022/10/18 11:20:00;;;;;;;;;;;20.30;63.60;;;;;;5041449;28;19909;-75
2022/10/18 11:22:26;;;;;;;;;;;20.40;63.60;;;;;;5034480;28;20423;-75
2022/10/18 11:24:51;;;;;;;;;;;20.30;63.50;;;;;;5036104;28;19909;-75
2022/10/18 11:27:20;;;;;;;;;;;20.40;63.70;;;;;;5056418;28;20343;-75
2022/10/18 11:29:48;;;;;;;;;;;20.40;63.70;;;;;;5056383;28;19913;-75
2022/10/18 11:32:19;;;;;;;;;;;20.40;63.60;;;;;;5039337;28;19913;-75
2022/10/18 11:34:50;;;;;;;;;;;20.40;63.60;;;;;;5002217;28;20245;-75
2022/10/18 11:37:22;;;;;;;;;;;20.30;63.40;;;;;;5036164;28;20004;-75
2022/10/18 11:40:00;;;;;;;;;;;20.30;63.40;;;;;;5035896;28;19919;-75
2022/10/18 11:42:31;;;;;;;;;;;20.30;63.60;;;;;;5038170;28;19916;-75
2022/10/18 11:45:04;;;;;;;;;;;20.30;63.60;;;;;;5038198;28;19955;-75
2022/10/18 11:47:30;;;;;;;;;;;20.30;63.60;;;;;;5037749;28;19909;-75
2022/10/18 11:50:14;;;;;;;;;;;20.30;63.60;;;;;;5055927;28;19909;-75
2022/10/18 11:52:49;;;;;;;;;;;20.30;63.60;;;;;;5055848;28;19919;-75
2022/10/18 11:55:30;;;;;;;;;;;20.30;63.60;;;;;;5055519;28;19909;-75
2022/10/18 11:58:05;;;;;;;;;;;20.30;63.40;;;;;;5037875;28;19908;-75
2022/10/18 12:00:38;;;;;;;;;;;20.30;63.40;;;;;;5055645;28;19908;-75
2022/10/18 12:03:21;;;;;;;;;;;20.30;63.50;;;;;;5044012;28;20431;-75
2022/10/18 12:05:47;;;;;;;;;;;20.20;63.50;;;;;;5034235;28;20369;-75
2022/10/18 12:08:14;;;;;;;;;;;20.30;63.60;;;;;;5023259;28;19924;-75
2022/10/18 12:10:40;;;;;;;;;;;20.30;63.60;;;;;;5055188;28;19909;-74
2022/10/18 12:13:06;;;;;;;;;;;20.30;63.60;;;;;;5037573;28;19917;-74
2022/10/18 12:15:33;;;;;;;;;;;20.30;63.60;;;;;;5055533;28;19908;-74
2022/10/18 12:17:59;;;;;;;;;;;20.30;63.80;;;;;;5037184;28;19909;-74
2022/10/18 12:20:35;;;;;;;;;;;20.30;63.70;;;;;;5037649;28;19909;-75
2022/10/18 12:23:00;;;;;;;;;;;20.40;63.80;;;;;;5037382;28;19909;-74
2022/10/18 12:25:27;;;;;;;;;;;20.40;63.70;;;;;;5037026;28;20405;-74
2022/10/18 12:28:00;;;;;;;;;;;20.40;63.60;;;;;;5020900;28;19909;-74
2022/10/18 12:30:30;;;;;;;;;;;20.40;63.40;;;;;;5055237;28;19915;-74
2022/10/18 12:33:09;;;;;;;;;;;20.40;63.40;;;;;;5037008;28;20349;-74
2022/10/18 12:35:38;;;;;;;;;;;20.40;63.30;;;;;;5036346;28;19996;-74
2022/10/18 12:38:18;;;;;;;;;;;20.40;63.30;;;;;;5037085;28;19952;-74
2022/10/18 12:40:44;;;;;;;;;;;20.40;63.30;;;;;;5054693;28;19908;-74
2022/10/18 12:43:35;;;;;;;;;;;20.40;63.40;;;;;;5017114;28;19913;-74
2022/10/18 12:46:02;;;;;;;;;;;20.40;63.20;;;;;;5017098;28;20276;-74
2022/10/18 12:48:27;;;;;;;;;;;20.40;63.40;;;;;;5033478;28;20051;-74
2022/10/18 12:51:03;;;;;;;;;;;20.30;63.40;;;;;;5034815;28;19960;-74
2022/10/18 12:53:29;;;;;;;;;;;20.40;63.50;;;;;;5033801;28;19944;-74
2022/10/18 12:55:54;;;;;;;;;;;20.40;63.50;;;;;;5033121;28;19916;-74
2022/10/18 12:58:21;;;;;;;;;;;20.40;63.40;;;;;;5033715;28;19909;-74
2022/10/18 13:00:46;;;;;;;;;;;20.40;63.30;;;;;;5033557;28;19916;-74
2022/10/18 13:03:18;;;;;;;;;;;20.50;63.30;;;;;;5034220;28;19909;-74
2022/10/18 13:05:46;;;;;;;;;;;20.50;63.10;;;;;;5034526;28;19929;-74
2022/10/18 13:08:30;;;;;;;;;;;20.50;63.20;;;;;;5039720;28;19909;-74
2022/10/18 13:11:11;;;;;;;;;;;20.50;63.30;;;;;;5054100;28;19909;-74
2022/10/18 13:13:38;;;;;;;;;;;20.50;63.30;;;;;;5054438;28;19916;-74
2022/10/18 13:16:06;;;;;;;;;;;20.50;63.30;;;;;;5019867;28;19909;-74
2022/10/18 13:18:36;;;;;;;;;;;20.50;63.30;;;;;;5035858;28;19909;-74
2022/10/18 13:21:10;;;;;;;;;;;20.50;63.10;;;;;;5036570;28;20361;-74
2022/10/18 13:23:38;;;;;;;;;;;20.50;63.00;;;;;;5054466;28;19908;-74
2022/10/18 13:26:03;;;;;;;;;;;20.50;63.00;;;;;;5019405;28;19919;-74
2022/10/18 13:28:29;;;;;;;;;;;20.40;62.90;;;;;;5054116;28;19913;-74
2022/10/18 13:30:54;;;;;;;;;;;20.40;62.90;;;;;;5033217;28;20000;-74
2022/10/18 13:33:30;;;;;;;;;;;20.40;62.90;;;;;;5033626;28;19953;-74
2022/10/18 13:36:14;;;;;;;;;;;20.40;63.00;;;;;;5016209;28;19955;-74
2022/10/18 13:39:00;;;;;;;;;;;20.40;62.90;;;;;;5042927;28;19909;-74
2022/10/18 13:41:42;;;;;;;;;;;20.40;62.80;;;;;;5035933;28;20257;-74
2022/10/18 13:44:09;;;;;;;;;;;20.40;62.70;;;;;;5035900;28;19909;-74
2022/10/18 13:46:35;;;;;;;;;;;20.40;62.60;;;;;;5053479;28;19920;-74
2022/10/18 13:49:13;;;;;;;;;;;20.40;62.60;;;;;;5053533;28;19908;-75
2022/10/18 13:51:58;;;;;;;;;;;20.40;62.60;;;;;;5053706;28;19912;-74
2022/10/18 13:54:32;;;;;;;;;;;20.40;62.60;;;;;;5018915;28;19916;-74
2022/10/18 13:57:00;;;;;;;;;;;20.40;62.60;;;;;;5035627;28;19916;-74
2022/10/18 13:59:41;;;;;;;;;;;20.40;62.70;;;;;;5053661;28;20118;-74
2022/10/18 14:02:25;;;;;;;;;;;20.40;62.80;;;;;;5053303;28;19913;-74
2022/10/18 14:04:55;;;;;;;;;;;20.40;62.90;;;;;;5022627;28;19952;-74
2022/10/18 14:07:20;;;;;;;;;;;20.40;62.80;;;;;;5032148;28;19912;-73
2022/10/18 14:09:52;;;;;;;;;;;20.40;62.90;;;;;;5050805;28;19909;-74
2022/10/18 14:12:36;;;;;;;;;;;20.40;62.80;;;;;;5035400;28;19948;-74
2022/10/18 14:15:04;;;;;;;;;;;20.40;62.90;;;;;;5053212;28;20000;-74
2022/10/18 14:17:35;;;;;;;;;;;20.40;62.90;;;;;;5035153;28;20284;-74
2022/10/18 14:20:19;;;;;;;;;;;20.40;62.90;;;;;;5053209;28;19909;-74
2022/10/18 14:22:46;;;;;;;;;;;20.40;62.70;;;;;;5053289;28;19909;-74